Dobrodošli na spletni strani vremenske postaje Senovo. Vse informacije so informativnega značaja, saj vremenska postaja ni del državne mreže meteoroloških postaj. AKTUALNIH OBVESTIL NI.


Sneg/Led Od: 21-02-2018 00:00 Do: 23-02-2018 23:59 Opozorilo za: Sneg/Led Stopnja: Rumena info button
Veter Od: 21-02-2018 00:00 Do: 22-02-2018 23:59 Opozorilo za: Veter Stopnja: Rumena info button

Pogled proti Armezu več informacij Pogled proti Armezu


Lisca več informacij Lisca


Radar strel več informacij blitzortung!


opozorilo za sneg/led več informacij rain snow radar


Obiščite še:

Template documentation
and downloads

And another site



Weather Underground, zgodovina - Tekstovno

Dnevni povzetek za Februar 28, 2017 Enote:  Metrično    Angleško   Obe
« Predhodni Dan
Naslednji Dan »
Dnevni Tedenski Mesečni Letni Po meri
  Višja: Nižja: Povprečje:
Temperatura: -17.8 °C -14.8 °C -11.3 °C
Točka rosišča: -17.8 °C -17.4 °C -16.3 °C
Vlažnost: Humidity % 45 % 55 %
Hitrost vetra: 0 km/h 0.3 km/h 11.7 km/h
Sunki vetra: 0 km/h - -
Veter:- - SW
Zračni tlak: 0 hPa 33822.8 hPa -
Padavine: 0 mm    
Historical Graphs
 
 
Tabelarni podarki za Februar 28, 2017
Čas Temperatura Točka rosišča Zračni tlak Veter Hitrost vetra Sunki vetra Vlažnost Intenziteta padavin (urna)
-17.8 °C -17.8 °C 0 hPa Calm     Humidity % 0 mm
00:04 -13.3 °C -16.9 °C 34198.6 hPa SW 5.5 km/h 14 km/h 63 % 0 mm
00:09 -13.3 °C -16.8 °C 34198.6 hPa South 5.5 km/h 9.8 km/h 64 % 0 mm
00:14 -13.3 °C -16.8 °C 34198.6 hPa SSW 5.5 km/h 12.2 km/h 64 % 0 mm
00:19 -13.3 °C -16.8 °C 34198.6 hPa SSW 6.8 km/h 20.3 km/h 64 % 0 mm
00:24 -13.3 °C -16.9 °C 34198.6 hPa SW 7.2 km/h 20.3 km/h 64 % 0 mm
00:29 -13.3 °C -16.8 °C 34198.6 hPa WSW 6.8 km/h 12.7 km/h 65 % 0 mm
00:34 -13.3 °C -16.9 °C 34198.6 hPa SSW 5.5 km/h 12.7 km/h 64 % 0 mm
00:39 -13.4 °C -16.8 °C 34164.7 hPa SSE 5.1 km/h 14 km/h 65 % 0 mm
00:44 -13.4 °C -16.9 °C 34164.7 hPa SSW 4.3 km/h 14 km/h 65 % 0 mm
00:49 -13.5 °C -16.8 °C 34164.7 hPa SSW 2.6 km/h 9.3 km/h 66 % 0 mm
00:54 -13.6 °C -16.9 °C 34164.7 hPa WSW 3.1 km/h 14.5 km/h 66 % 0 mm
00:59 -13.8 °C -17.1 °C 34164.7 hPa West 3.1 km/h 14.5 km/h 66 % 0 mm
01:04 -13.9 °C -17.1 °C 34164.7 hPa NNW 2.3 km/h 6.4 km/h 67 % 0 mm
01:09 -14 °C -17.2 °C 34164.7 hPa SSE 2.6 km/h 9.8 km/h 67 % 0 mm
01:14 -14.1 °C -17.1 °C 34164.7 hPa South 2.9 km/h 9.8 km/h 68 % 0 mm
01:19 -14.2 °C -17.2 °C 34164.7 hPa WNW 2.6 km/h 9.3 km/h 68 % 0 mm
01:24 -14.2 °C -17.3 °C 34164.7 hPa WSW 2.9 km/h 14 km/h 68 % 0 mm
01:29 -14 °C -16.8 °C 34164.7 hPa SW 5 km/h 14.5 km/h 70 % 0 mm
01:34 -13.9 °C -16.8 °C 34164.7 hPa SW 7.2 km/h 14.5 km/h 70 % 0 mm
01:39 -14 °C -16.8 °C 34130.9 hPa SSW 6 km/h 12.2 km/h 70 % 0 mm
01:44 -14.2 °C -17 °C 34130.9 hPa WSW 4.3 km/h 15 km/h 70 % 0 mm
01:49 -14.2 °C -17 °C 34130.9 hPa NW 3.9 km/h 15 km/h 70 % 0 mm
01:54 -14.2 °C -17 °C 34130.9 hPa ESE 3.7 km/h 14.5 km/h 70 % 0 mm
01:59 -14.1 °C -16.8 °C 34130.9 hPa South 4.7 km/h 15.6 km/h 71 % 0 mm
02:04 -13.9 °C -16.7 °C 34130.9 hPa SW 5.1 km/h 15.6 km/h 71 % 0 mm
02:09 -13.9 °C -16.7 °C 34130.9 hPa SSW 4.7 km/h 11.1 km/h 70 % 0 mm
02:14 -13.7 °C -16.6 °C 34130.9 hPa SW 5.6 km/h 11.6 km/h 70 % 0 mm
02:19 -13.7 °C -16.5 °C 34130.9 hPa SW 8 km/h 20.9 km/h 70 % 0 mm
02:24 -13.6 °C -16.4 °C 34097 hPa SSW 10.9 km/h 22.5 km/h 70 % 0 mm
02:29 -13.6 °C -16.5 °C 34097 hPa South 11.9 km/h 22.5 km/h 69 % 0 mm
02:34 -13.5 °C -16.4 °C 34097 hPa SSW 8.2 km/h 18.7 km/h 69 % 0 mm
02:39 -13.5 °C -16.4 °C 34130.9 hPa South 6.4 km/h 17.4 km/h 69 % 0 mm
02:44 -13.4 °C -16.5 °C 34130.9 hPa SSW 7.6 km/h 17.4 km/h 68 % 0 mm
02:49 -13.4 °C -16.5 °C 34130.9 hPa SSW 5 km/h 16.3 km/h 68 % 0 mm
02:54 -13.4 °C -16.5 °C 34164.7 hPa SW 3.7 km/h 14 km/h 68 % 0 mm
02:59 -13.4 °C -16.6 °C 34164.7 hPa SSW 5 km/h 14 km/h 67 % 0 mm
03:04 -13.5 °C -16.7 °C 34164.7 hPa SSE 4.7 km/h 9.8 km/h 67 % 0 mm
03:09 -13.5 °C -16.7 °C 34130.9 hPa ESE 3.9 km/h 9.8 km/h 67 % 0 mm
03:14 -13.5 °C -16.7 °C 34130.9 hPa SE 3.4 km/h 8 km/h 67 % 0 mm
03:19 -13.5 °C -16.7 °C 34130.9 hPa South 2.1 km/h 9.8 km/h 67 % 0 mm
03:24 -13.5 °C -16.7 °C 34130.9 hPa WSW 2.1 km/h 10.3 km/h 67 % 0 mm
03:29 -13.5 °C -16.7 °C 34130.9 hPa WSW 1.8 km/h 20.3 km/h 67 % 0 mm
03:34 -13.5 °C -16.7 °C 34130.9 hPa SSW 5.1 km/h 20.3 km/h 67 % 0 mm
03:39 -13.5 °C -16.8 °C 34130.9 hPa SSW 9.3 km/h 15 km/h 66 % 0 mm
03:44 -13.5 °C -16.8 °C 34130.9 hPa South 7.7 km/h 15 km/h 66 % 0 mm
03:49 -13.6 °C -16.8 °C 34130.9 hPa South 6.8 km/h 15 km/h 66 % 0 mm
03:54 -13.5 °C -16.8 °C 34097 hPa South 7.6 km/h 20.3 km/h 66 % 0 mm
03:59 -13.5 °C -16.8 °C 34097 hPa South 6.4 km/h 20.3 km/h 66 % 0 mm
04:04 -13.4 °C -16.8 °C 34097 hPa SSW 6.9 km/h 14.5 km/h 66 % 0 mm
04:09 -13.4 °C -16.8 °C 34063.2 hPa South 8.9 km/h 20.9 km/h 66 % 0 mm
04:14 -13.4 °C -16.8 °C 34063.2 hPa South 8.5 km/h 20.9 km/h 66 % 0 mm
04:19 -13.4 °C -16.7 °C 34063.2 hPa South 6.8 km/h 17.4 km/h 66 % 0 mm
04:24 -13.4 °C -16.7 °C 34063.2 hPa South 6 km/h 12.7 km/h 66 % 0 mm
04:29 -13.4 °C -16.7 °C 34063.2 hPa South 7.2 km/h 19.6 km/h 66 % 0 mm
04:34 -13.3 °C -16.6 °C 34063.2 hPa SSW 8.9 km/h 19.6 km/h 66 % 0 mm
04:39 -13.3 °C -16.6 °C 34063.2 hPa SW 8 km/h 14.5 km/h 66 % 0 mm
04:44 -13.3 °C -16.6 °C 34063.2 hPa SSW 6.4 km/h 11.1 km/h 66 % 0 mm
04:49 -13.3 °C -16.6 °C 34063.2 hPa SSW 7.2 km/h 16.3 km/h 66 % 0 mm
04:54 -13.3 °C -16.6 °C 34063.2 hPa SSW 8 km/h 16.3 km/h 66 % 0 mm
04:59 -13.4 °C -16.7 °C 34063.2 hPa SSW 6.3 km/h 14.5 km/h 66 % 0 mm
05:04 -13.4 °C -16.7 °C 34063.2 hPa SSW 6.4 km/h 12.7 km/h 66 % 0 mm
05:09 -13.4 °C -16.7 °C 34063.2 hPa SSW 8.9 km/h 15.6 km/h 66 % 0 mm
05:14 -13.4 °C -16.7 °C 34063.2 hPa SSW 8.5 km/h 15.6 km/h 66 % 0 mm
05:19 -13.4 °C -16.8 °C 34063.2 hPa SSW 7.7 km/h 15.6 km/h 66 % 0 mm
05:24 -13.5 °C -16.7 °C 34029.3 hPa SSW 7.6 km/h 15.6 km/h 67 % 0 mm
05:30 -13.5 °C -16.7 °C 34029.3 hPa SSW 6.8 km/h 14.5 km/h 67 % 0 mm
05:35 -13.7 °C -16.8 °C 34029.3 hPa South 5.6 km/h 14.5 km/h 67 % 0 mm
05:40 -13.8 °C -16.9 °C 34063.2 hPa SSE 5.6 km/h 11.1 km/h 67 % 0 mm
05:45 -13.9 °C -17.1 °C 34063.2 hPa SSE 4.7 km/h 10.3 km/h 67 % 0 mm
05:50 -14.1 °C -17.2 °C 34063.2 hPa SSE 1.8 km/h 8 km/h 67 % 0 mm
05:55 -14.2 °C -17.3 °C 34029.3 hPa WNW 1.6 km/h 6.9 km/h 68 % 0 mm
06:00 -14.4 °C -17.4 °C 34029.3 hPa WNW 3.4 km/h 9.3 km/h 68 % 0 mm
06:05 -14.6 °C -17.4 °C 34029.3 hPa WNW 4.2 km/h 9.3 km/h 70 % 0 mm
06:10 -14.7 °C -17.4 °C 34029.3 hPa NW 2.9 km/h 8 km/h 70 % 0 mm
06:15 -14.8 °C -17.4 °C 34029.3 hPa NW 0.8 km/h 6.9 km/h 71 % 0 mm
06:20 -14.8 °C -17.4 °C 34063.2 hPa WNW 0.3 km/h 7.6 km/h 71 % 0 mm
06:25 -14.8 °C -17.3 °C 34063.2 hPa WNW 1 km/h 9.3 km/h 72 % 0 mm
06:31 -14.8 °C -17.3 °C 34063.2 hPa NW 3.1 km/h 9.3 km/h 73 % 0 mm
06:36 -14.8 °C -17.3 °C 34097 hPa NW 3.1 km/h 9.3 km/h 73 % 0 mm
06:41 -14.8 °C -17.3 °C 34097 hPa South 1.6 km/h 7.6 km/h 73 % 0 mm
06:46 -14.8 °C -17.2 °C 34097 hPa WSW 2.3 km/h 10.3 km/h 74 % 0 mm
06:51 -14.8 °C -17.2 °C 34063.2 hPa West 4.2 km/h 10.3 km/h 74 % 0 mm
06:56 -14.7 °C -17 °C 34063.2 hPa WNW 3.1 km/h 8.9 km/h 75 % 0 mm
07:01 -14.7 °C -16.9 °C 34063.2 hPa SW 3.4 km/h 15.6 km/h 75 % 0 mm
07:06 -14.4 °C -16.7 °C 34063.2 hPa SW 5.1 km/h 15.6 km/h 75 % 0 mm
07:11 -14.2 °C -16.4 °C 34063.2 hPa West 6 km/h 16.9 km/h 75 % 0 mm
07:16 -14.1 °C -16.3 °C 34063.2 hPa West 6.4 km/h 16.9 km/h 75 % 0 mm
07:21 -14 °C -16.3 °C 34029.3 hPa West 3.9 km/h 11.1 km/h 75 % 0 mm
07:26 -13.9 °C -16.2 °C 34029.3 hPa West 3.7 km/h 11.1 km/h 75 % 0 mm
07:31 -13.9 °C -16.3 °C 34029.3 hPa West 4.3 km/h 11.1 km/h 74 % 0 mm
07:36 -13.7 °C -16.2 °C 34029.3 hPa WNW 3.9 km/h 14 km/h 74 % 0 mm
07:41 -13.4 °C -15.9 °C 34029.3 hPa NW 3.9 km/h 14 km/h 74 % 0 mm
07:46 -13.3 °C -15.7 °C 34029.3 hPa SW 2.6 km/h 9.8 km/h 74 % 0 mm
07:51 -13.2 °C -15.7 °C 34063.2 hPa WSW 2.9 km/h 9.8 km/h 73 % 0 mm
07:56 -13 °C -15.5 °C 34063.2 hPa WSW 4.3 km/h 10.3 km/h 73 % 0 mm
08:01 -12.9 °C -15.6 °C 34063.2 hPa WSW 6 km/h 15 km/h 72 % 0 mm
08:06 -12.8 °C -15.6 °C 34063.2 hPa WSW 7.7 km/h 15 km/h 71 % 0 mm
08:11 -12.7 °C -15.6 °C 34063.2 hPa SSW 7.2 km/h 14.5 km/h 70 % 0 mm
08:16 -12.7 °C -15.6 °C 34063.2 hPa SSW 5 km/h 11.1 km/h 70 % 0 mm
08:21 -12.6 °C -15.6 °C 34063.2 hPa SSW 3.1 km/h 9.8 km/h 69 % 0 mm
08:26 -12.6 °C -15.6 °C 34063.2 hPa South 3.1 km/h 9.8 km/h 69 % 0 mm
08:28 -12.6 °C -15.6 °C 34063.2 hPa SSW 2.3 km/h 9.8 km/h 69 % 0 mm
08:33 -12.5 °C -15.6 °C 34063.2 hPa SW 4.3 km/h 15 km/h 68 % 0 mm
08:38 -12.4 °C -15.5 °C 34063.2 hPa SW 7.2 km/h 15 km/h 68 % 0 mm
08:43 -12.3 °C -15.4 °C 34063.2 hPa SW 7.7 km/h 16.9 km/h 68 % 0 mm
08:48 -12.1 °C -15.4 °C 34063.2 hPa SW 8.9 km/h 16.9 km/h 67 % 0 mm
08:53 -12 °C -15.2 °C 34063.2 hPa SW 9.8 km/h 16.9 km/h 67 % 0 mm
08:58 -11.7 °C -15.1 °C 34063.2 hPa SW 10.9 km/h 20.9 km/h 66 % 0 mm
09:03 -11.5 °C -15.2 °C 34063.2 hPa SW 14 km/h 20.9 km/h 64 % 0 mm
09:08 -11.3 °C -15 °C 34063.2 hPa SW 15 km/h 22 km/h 64 % 0 mm
09:13 -11.2 °C -14.9 °C 34063.2 hPa SW 15.6 km/h 27.2 km/h 63 % 0 mm
09:18 -11.1 °C -15.3 °C 34063.2 hPa SW 16.6 km/h 31.9 km/h 60 % 0 mm
09:23 -11 °C -15.3 °C 34063.2 hPa SSW 18.2 km/h 33.6 km/h 59 % 0 mm
09:28 -10.9 °C -15.2 °C 34063.2 hPa SSW 17.1 km/h 33.6 km/h 59 % 0 mm
09:33 -10.8 °C -15.3 °C 34063.2 hPa SW 15.8 km/h 27.2 km/h 58 % 0 mm
09:38 -10.7 °C -15.2 °C 34063.2 hPa SW 15.6 km/h 27.2 km/h 58 % 0 mm
09:43 -10.7 °C -15.3 °C 34063.2 hPa SW 13.5 km/h 25.4 km/h 57 % 0 mm
09:48 -10.6 °C -15.4 °C 34063.2 hPa SW 14.5 km/h 25.4 km/h 56 % 0 mm
09:53 -10.6 °C -15.5 °C 34029.3 hPa SW 14.2 km/h 26.2 km/h 55 % 0 mm
09:58 -10.6 °C -15.4 °C 34029.3 hPa SW 14 km/h 26.7 km/h 55 % 0 mm
10:03 -10.5 °C -15.6 °C 34029.3 hPa SW 15.8 km/h 31.9 km/h 54 % 0 mm
10:08 -10.4 °C -15.8 °C 34029.3 hPa SW 17.4 km/h 38.3 km/h 52 % 0 mm
10:13 -10.4 °C -15.7 °C 34029.3 hPa SSW 20.9 km/h 38.3 km/h 52 % 0 mm
10:18 -10.3 °C -15.7 °C 34029.3 hPa SSW 21.6 km/h 37.5 km/h 52 % 0 mm
10:23 -10.3 °C -15.7 °C 34063.2 hPa SW 18.3 km/h 37.5 km/h 52 % 0 mm
10:28 -10.3 °C -15.8 °C 34063.2 hPa SW 17.1 km/h 38.3 km/h 51 % 0 mm
10:33 -10.2 °C -15.7 °C 34063.2 hPa SW 17.1 km/h 38.3 km/h 51 % 0 mm
10:38 -10.1 °C -15.7 °C 34063.2 hPa SW 18.2 km/h 39.9 km/h 51 % 0 mm
10:43 -10.1 °C -15.6 °C 34063.2 hPa SW 18.7 km/h 39.9 km/h 51 % 0 mm
10:48 -9.9 °C -15.6 °C 34063.2 hPa SW 18.2 km/h 33.2 km/h 50 % 0 mm
10:53 -9.8 °C -15.7 °C 34063.2 hPa SW 18.2 km/h 44.6 km/h 49 % 0 mm
10:58 -9.8 °C -15.7 °C 34063.2 hPa SSW 18.8 km/h 44.6 km/h 49 % 0 mm
11:03 -9.9 °C -16 °C 34063.2 hPa SW 24.6 km/h 51.5 km/h 48 % 0 mm
11:08 -10 °C -16 °C 34063.2 hPa SW 27.2 km/h 51.5 km/h 48 % 0 mm
11:13 -10.1 °C -16.1 °C 34063.2 hPa SW 23.5 km/h 49.2 km/h 48 % 0 mm
11:18 -10.2 °C -16.2 °C 34063.2 hPa SW 25.9 km/h 46.8 km/h 48 % 0 mm
11:23 -10.3 °C -16.1 °C 34063.2 hPa SW 25.9 km/h 46.8 km/h 49 % 0 mm
11:28 -10.3 °C -16.1 °C 34063.2 hPa SSW 20.3 km/h 45.1 km/h 49 % 0 mm
11:33 -10.3 °C -16.2 °C 34063.2 hPa SSW 22.2 km/h 40.7 km/h 49 % 0 mm
11:38 -10.3 °C -16.2 °C 34063.2 hPa SSW 22.2 km/h 46.8 km/h 49 % 0 mm
11:43 -10.2 °C -16.1 °C 34063.2 hPa SSW 24.3 km/h 52 km/h 49 % 0 mm
11:49 -9.9 °C -15.8 °C 34063.2 hPa SW 24.1 km/h 52 km/h 49 % 0 mm
11:54 -9.9 °C -16 °C 34063.2 hPa SW 22.2 km/h 43.5 km/h 48 % 0 mm
11:59 -10 °C -15.9 °C 34063.2 hPa SW 24.3 km/h 43.5 km/h 49 % 0 mm
12:04 -10 °C -16 °C 34063.2 hPa SSW 21.2 km/h 41.7 km/h 48 % 0 mm
12:09 -10.1 °C -16.1 °C 34029.3 hPa SW 16.3 km/h 31.9 km/h 48 % 0 mm
12:14 -10.1 °C -15.9 °C 34029.3 hPa SW 18.3 km/h 37.5 km/h 49 % 0 mm
12:19 -10.1 °C -15.9 °C 34029.3 hPa SW 18.7 km/h 37.5 km/h 49 % 0 mm
12:24 -10.1 °C -15.9 °C 34063.2 hPa SW 14.2 km/h 36.5 km/h 49 % 0 mm
12:29 -10.2 °C -16 °C 34063.2 hPa SW 16.9 km/h 41.7 km/h 49 % 0 mm
12:34 -10.2 °C -16 °C 34063.2 hPa SW 17.5 km/h 41.7 km/h 49 % 0 mm
12:39 -10.3 °C -16.1 °C 34063.2 hPa SW 17.1 km/h 33.2 km/h 49 % 0 mm
12:44 -10.3 °C -16.2 °C 34063.2 hPa SW 18.2 km/h 48.1 km/h 49 % 0 mm
12:49 -10.3 °C -16.2 °C 34063.2 hPa SW 16.3 km/h 48.1 km/h 49 % 0 mm
12:54 -10.3 °C -16.2 °C 34063.2 hPa SSW 14.2 km/h 44.6 km/h 49 % 0 mm
12:59 -10.4 °C -16.2 °C 34063.2 hPa SW 14.5 km/h 33.6 km/h 49 % 0 mm
13:04 -10.4 °C -16.2 °C 34063.2 hPa SW 15.8 km/h 31.9 km/h 49 % 0 mm
13:09 -10.4 °C -16.2 °C 34063.2 hPa SW 14.5 km/h 28.5 km/h 49 % 0 mm
13:14 -10.4 °C -16.2 °C 34063.2 hPa SW 14.8 km/h 28.5 km/h 49 % 0 mm
13:19 -10.4 °C -16.2 °C 34063.2 hPa SW 20.4 km/h 51 km/h 49 % 0 mm
13:24 -10.3 °C -16.1 °C 34029.3 hPa SW 22.2 km/h 51 km/h 49 % 0 mm
13:29 -10.1 °C -15.9 °C 34029.3 hPa SW 18.7 km/h 31.9 km/h 49 % 0 mm
13:34 -9.9 °C -15.8 °C 34029.3 hPa SW 18.2 km/h 44.6 km/h 49 % 0 mm
13:39 -9.9 °C -15.9 °C 34029.3 hPa SW 17.5 km/h 44.6 km/h 48 % 0 mm
13:44 -9.9 °C -15.9 °C 34029.3 hPa SW 18.3 km/h 34.8 km/h 48 % 0 mm
13:49 -9.9 °C -15.9 °C 34029.3 hPa SW 18.3 km/h 34.8 km/h 48 % 0 mm
13:54 -9.9 °C -15.9 °C 34029.3 hPa SW 15.3 km/h 26.7 km/h 48 % 0 mm
13:59 -9.9 °C -16.1 °C 34029.3 hPa SW 17.9 km/h 35.2 km/h 47 % 0 mm
14:04 -10 °C -16.2 °C 34029.3 hPa SW 19.5 km/h 39.9 km/h 47 % 0 mm
14:09 -10 °C -16.2 °C 34029.3 hPa WSW 18.7 km/h 39.9 km/h 47 % 0 mm
14:14 -9.9 °C -16.2 °C 34029.3 hPa WSW 18.7 km/h 37 km/h 47 % 0 mm
14:19 -9.8 °C -16 °C 34029.3 hPa SW 21.6 km/h 44.1 km/h 47 % 0 mm
14:24 -9.5 °C -15.7 °C 33992.1 hPa SW 21.6 km/h 44.1 km/h 47 % 0 mm
14:29 -9.4 °C -15.8 °C 33992.1 hPa SW 19.2 km/h 34.1 km/h 46 % 0 mm
14:34 -9.2 °C -15.6 °C 33992.1 hPa SW 20.9 km/h 34.1 km/h 46 % 0 mm
14:39 -9.2 °C -15.8 °C 33992.1 hPa SW 21.6 km/h 45.9 km/h 45 % 0 mm
14:44 -9.2 °C -15.6 °C 33992.1 hPa SW 17.1 km/h 45.9 km/h 46 % 0 mm
14:49 -9.3 °C -15.9 °C 33992.1 hPa SW 15.8 km/h 32.3 km/h 45 % 0 mm
14:54 -9.3 °C -15.9 °C 33958.2 hPa SW 20 km/h 57.9 km/h 45 % 0 mm
14:55 -9.4 °C -16 °C 33958.2 hPa SW 20.8 km/h 57.9 km/h 45 % 0 mm
15:00 -9.4 °C -16 °C 33958.2 hPa SW 23.8 km/h 57.9 km/h 45 % 0 mm
15:05 -9.6 °C -15.9 °C 33958.2 hPa SW 21.2 km/h 51.5 km/h 46 % 0 mm
15:10 -9.6 °C -16 °C 33992.1 hPa SW 16.6 km/h 25.4 km/h 46 % 0 mm
15:15 -9.7 °C -16.1 °C 33992.1 hPa SSW 12.9 km/h 24.8 km/h 46 % 0 mm
15:20 -9.8 °C -16.2 °C 33992.1 hPa SSW 12.4 km/h 20.9 km/h 46 % 0 mm
15:25 -9.8 °C -16.2 °C 33992.1 hPa SW 12.4 km/h 20.9 km/h 46 % 0 mm
15:30 -9.9 °C -16.3 °C 33992.1 hPa SW 11.6 km/h 27.2 km/h 46 % 0 mm
15:35 -9.9 °C -16.3 °C 33992.1 hPa SW 14.8 km/h 27.2 km/h 46 % 0 mm
15:40 -10 °C -16.3 °C 33992.1 hPa SW 14 km/h 23.8 km/h 46 % 0 mm
15:41 -10 °C -16.3 °C 33992.1 hPa SW 13.5 km/h 23.8 km/h 46 % 0 mm
15:46 -10.1 °C -16.2 °C 33992.1 hPa SSW 11.9 km/h 20.9 km/h 47 % 0 mm
15:51 -10.1 °C -16.3 °C 33992.1 hPa SW 14.5 km/h 39.4 km/h 47 % 0 mm
15:56 -10.2 °C -16.3 °C 33992.1 hPa SW 18.8 km/h 39.4 km/h 47 % 0 mm
16:01 -10.2 °C -16.3 °C 33992.1 hPa SW 20.9 km/h 38.3 km/h 47 % 0 mm
16:06 -10.2 °C -16.4 °C 33958.2 hPa SW 17.9 km/h 33.6 km/h 47 % 0 mm
16:11 -10.3 °C -16.4 °C 33958.2 hPa SW 15 km/h 29 km/h 47 % 0 mm
16:16 -10.3 °C -16.4 °C 33958.2 hPa SW 16.6 km/h 31.9 km/h 47 % 0 mm
16:21 -10.3 °C -16.5 °C 33958.2 hPa SW 16.3 km/h 31.9 km/h 47 % 0 mm
16:26 -10.4 °C -16.6 °C 33958.2 hPa SW 12.2 km/h 27.2 km/h 47 % 0 mm
16:31 -10.4 °C -16.6 °C 33958.2 hPa SW 12.9 km/h 26.7 km/h 47 % 0 mm
16:36 -10.4 °C -16.6 °C 33958.2 hPa SW 15 km/h 26.7 km/h 47 % 0 mm
16:42 -10.4 °C -16.6 °C 33958.2 hPa SW 15 km/h 26.7 km/h 47 % 0 mm
16:47 -10.4 °C -16.6 °C 33958.2 hPa SW 12.2 km/h 26.2 km/h 47 % 0 mm
16:52 -10.4 °C -16.6 °C 33924.3 hPa SSW 9.3 km/h 26.7 km/h 47 % 0 mm
16:57 -10.4 °C -16.6 °C 33924.3 hPa SW 11.6 km/h 26.7 km/h 47 % 0 mm
17:02 -10.5 °C -16.6 °C 33924.3 hPa SW 12.9 km/h 22.5 km/h 47 % 0 mm
17:07 -10.5 °C -16.6 °C 33924.3 hPa SSW 11.9 km/h 23.8 km/h 47 % 0 mm
17:12 -10.5 °C -16.6 °C 33924.3 hPa SW 11.1 km/h 24.3 km/h 47 % 0 mm
17:17 -10.5 °C -16.6 °C 33924.3 hPa SW 13.2 km/h 38.3 km/h 47 % 0 mm
17:22 -10.5 °C -16.6 °C 33924.3 hPa SW 15 km/h 38.3 km/h 47 % 0 mm
17:27 -10.5 °C -16.6 °C 33924.3 hPa SW 13.5 km/h 20.9 km/h 47 % 0 mm
17:32 -10.5 °C -16.6 °C 33924.3 hPa SW 11.1 km/h 20.9 km/h 47 % 0 mm
17:37 -10.6 °C -16.7 °C 33890.5 hPa SW 7.2 km/h 19.2 km/h 47 % 0 mm
17:42 -10.6 °C -16.7 °C 33890.5 hPa WSW 6.3 km/h 15 km/h 47 % 0 mm
17:47 -10.6 °C -16.8 °C 33890.5 hPa WSW 5 km/h 15 km/h 47 % 0 mm
17:52 -10.7 °C -16.8 °C 33924.3 hPa East 2.3 km/h 8.9 km/h 47 % 0 mm
17:57 -10.7 °C -16.7 °C 33924.3 hPa WSW 3.1 km/h 15 km/h 48 % 0 mm
18:02 -10.7 °C -16.7 °C 33924.3 hPa SW 5.5 km/h 22.5 km/h 48 % 0 mm
18:07 -10.7 °C -16.6 °C 33924.3 hPa SSW 8.5 km/h 26.7 km/h 48 % 0 mm
18:12 -10.6 °C -16.6 °C 33924.3 hPa SW 11.9 km/h 27.2 km/h 48 % 0 mm
18:17 -10.6 °C -16.7 °C 33924.3 hPa SW 12.7 km/h 27.2 km/h 47 % 0 mm
18:22 -10.5 °C -16.6 °C 33924.3 hPa SW 12.2 km/h 27.7 km/h 47 % 0 mm
18:27 -10.4 °C -16.6 °C 33924.3 hPa WSW 14 km/h 27.7 km/h 47 % 0 mm
18:32 -10.4 °C -16.6 °C 33924.3 hPa SW 18.3 km/h 38.3 km/h 47 % 0 mm
18:37 -10.4 °C -16.6 °C 33924.3 hPa SW 17.1 km/h 38.3 km/h 47 % 0 mm
18:42 -10.4 °C -16.6 °C 33924.3 hPa WSW 13.7 km/h 27.7 km/h 47 % 0 mm
18:47 -10.4 °C -16.6 °C 33924.3 hPa WSW 14.5 km/h 48.6 km/h 47 % 0 mm
18:52 -10.3 °C -16.5 °C 33924.3 hPa WSW 18.2 km/h 48.6 km/h 47 % 0 mm
18:57 -10.3 °C -16.5 °C 33924.3 hPa SW 16.6 km/h 34.1 km/h 47 % 0 mm
19:02 -10.4 °C -16.6 °C 33924.3 hPa SW 11.9 km/h 20.3 km/h 47 % 0 mm
19:07 -10.4 °C -16.6 °C 33924.3 hPa WSW 12.7 km/h 20.3 km/h 47 % 0 mm
19:12 -10.4 °C -16.4 °C 33924.3 hPa WSW 12.9 km/h 20.3 km/h 48 % 0 mm
19:17 -10.3 °C -16.5 °C 33924.3 hPa SW 13.5 km/h 23 km/h 47 % 0 mm
19:22 -10.4 °C -16.4 °C 33890.5 hPa SW 13.2 km/h 23 km/h 48 % 0 mm
19:27 -10.3 °C -16.5 °C 33890.5 hPa WSW 12.4 km/h 23 km/h 47 % 0 mm
19:32 -10.3 °C -16.5 °C 33890.5 hPa WSW 14.2 km/h 32.3 km/h 47 % 0 mm
19:37 -10.3 °C -16.3 °C 33890.5 hPa WSW 12.4 km/h 32.3 km/h 48 % 0 mm
19:42 -10.4 °C -16.4 °C 33890.5 hPa WSW 8.5 km/h 14.5 km/h 48 % 0 mm
19:47 -10.4 °C -16.4 °C 33890.5 hPa WSW 9.7 km/h 31.4 km/h 48 % 0 mm
19:52 -10.4 °C -16.4 °C 33890.5 hPa SW 10.1 km/h 31.4 km/h 48 % 0 mm
19:57 -10.5 °C -16.5 °C 33890.5 hPa SSW 8.2 km/h 19.6 km/h 48 % 0 mm
20:02 -10.6 °C -16.6 °C 33890.5 hPa SW 7.6 km/h 22.5 km/h 48 % 0 mm
20:07 -10.7 °C -16.6 °C 33890.5 hPa WSW 6.3 km/h 22.5 km/h 48 % 0 mm
20:12 -10.7 °C -16.7 °C 33890.5 hPa SSW 5.1 km/h 18.7 km/h 48 % 0 mm
20:17 -10.8 °C -16.8 °C 33890.5 hPa SSW 6.4 km/h 18.7 km/h 48 % 0 mm
20:23 -10.8 °C -16.8 °C 33890.5 hPa SSE 5.6 km/h 11.1 km/h 48 % 0 mm
20:28 -10.9 °C -16.7 °C 33890.5 hPa SE 4.7 km/h 9.8 km/h 49 % 0 mm
20:33 -10.9 °C -16.7 °C 33890.5 hPa SSW 6.8 km/h 19.6 km/h 49 % 0 mm
20:34 -10.9 °C -16.7 °C 33890.5 hPa SSW 6.9 km/h 19.6 km/h 49 % 0 mm
20:39 -10.9 °C -16.7 °C 33890.5 hPa SSW 9.8 km/h 20.3 km/h 49 % 0 mm
20:44 -11 °C -16.8 °C 33890.5 hPa SW 6.8 km/h 20.3 km/h 49 % 0 mm
20:49 -11 °C -16.8 °C 33890.5 hPa West 4.3 km/h 17.9 km/h 49 % 0 mm
20:51 -11 °C -16.8 °C 33856.6 hPa SW 4.2 km/h 17.9 km/h 49 % 0 mm
20:56 -11 °C -16.8 °C 33856.6 hPa WSW 6.3 km/h 17.9 km/h 49 % 0 mm
21:01 -11 °C -16.8 °C 33856.6 hPa SW 6.8 km/h 20.9 km/h 49 % 0 mm
21:06 -10.9 °C -16.7 °C 33856.6 hPa SSW 5.1 km/h 20.9 km/h 49 % 0 mm
21:11 -10.8 °C -16.6 °C 33856.6 hPa SW 6.8 km/h 19.6 km/h 49 % 0 mm
21:16 -10.8 °C -16.6 °C 33856.6 hPa SW 10.6 km/h 19.6 km/h 49 % 0 mm
21:21 -10.7 °C -16.6 °C 33856.6 hPa SW 8.9 km/h 16.9 km/h 49 % 0 mm
21:26 -10.7 °C -16.6 °C 33856.6 hPa WSW 5.1 km/h 10.3 km/h 49 % 0 mm
21:31 -10.7 °C -16.5 °C 33856.6 hPa SW 4.3 km/h 16.3 km/h 49 % 0 mm
21:36 -10.6 °C -16.6 °C 33856.6 hPa West 6.3 km/h 27.7 km/h 48 % 0 mm
21:41 -10.5 °C -16.5 °C 33856.6 hPa SW 11.6 km/h 27.7 km/h 48 % 0 mm
21:46 -10.4 °C -16.4 °C 33856.6 hPa SW 10.9 km/h 24.8 km/h 48 % 0 mm
21:51 -10.4 °C -16.4 °C 33856.6 hPa WSW 8.2 km/h 26.7 km/h 48 % 0 mm
21:56 -10.3 °C -16.3 °C 33856.6 hPa West 11.1 km/h 26.7 km/h 48 % 0 mm
22:01 -10.3 °C -16.3 °C 33856.6 hPa WSW 11.6 km/h 31.9 km/h 48 % 0 mm
22:06 -10.3 °C -16.3 °C 33822.8 hPa SW 13.2 km/h 31.9 km/h 48 % 0 mm
22:11 -10.2 °C -16.2 °C 33822.8 hPa SW 16.6 km/h 45.1 km/h 48 % 0 mm
22:16 -10.2 °C -16.2 °C 33822.8 hPa SW 16.6 km/h 45.1 km/h 48 % 0 mm
22:21 -10.2 °C -16.3 °C 33822.8 hPa SSW 12.9 km/h 19.6 km/h 47 % 0 mm
22:25 -10.2 °C -16.2 °C 33822.8 hPa SW 14 km/h 15.6 km/h 48 % 0 mm
22:26 -10.2 °C -16.2 °C 33822.8 hPa SW 12.7 km/h 15.6 km/h 48 % 0 mm
22:27 -10.2 °C -16.2 °C 33822.8 hPa SW 13.2 km/h 15.6 km/h 48 % 0 mm
22:28 -10.2 °C -16.2 °C 33822.8 hPa SW 12.7 km/h 14.5 km/h 48 % 0 mm
22:29 -10.2 °C -16.2 °C 33822.8 hPa SW 12.9 km/h 20.3 km/h 48 % 0 mm
22:30 -10.2 °C -16.2 °C 33822.8 hPa SW 13.7 km/h 20.3 km/h 48 % 0 mm
22:31 -10.2 °C -16.2 °C 33822.8 hPa SW 14.5 km/h 25.4 km/h 48 % 0 mm
22:32 -10.2 °C -16.2 °C 33822.8 hPa SW 15 km/h 41.2 km/h 48 % 0 mm
22:33 -10.2 °C -16.2 °C 33822.8 hPa SW 15.6 km/h 41.2 km/h 48 % 0 mm
22:34 -10.2 °C -16.2 °C 33822.8 hPa SW 15.3 km/h 41.2 km/h 48 % 0 mm
22:35 -10.2 °C -16.2 °C 33822.8 hPa SW 16.1 km/h 41.2 km/h 48 % 0 mm
22:36 -10.2 °C -16.2 °C 33822.8 hPa SW 18.2 km/h 41.2 km/h 48 % 0 mm
22:37 -10.2 °C -16.2 °C 33822.8 hPa SW 17.9 km/h 41.2 km/h 48 % 0 mm
22:38 -10.2 °C -16.2 °C 33822.8 hPa SW 17.9 km/h 41.2 km/h 48 % 0 mm
22:39 -10.2 °C -16.2 °C 33822.8 hPa WSW 17.5 km/h 41.2 km/h 48 % 0 mm
22:40 -10.2 °C -16.2 °C 33822.8 hPa WSW 16.9 km/h 41.2 km/h 48 % 0 mm
22:41 -10.2 °C -16.2 °C 33822.8 hPa SW 15.6 km/h 41.2 km/h 48 % 0 mm
22:42 -10.2 °C -16.2 °C 33822.8 hPa WSW 14.2 km/h 20.3 km/h 48 % 0 mm
22:43 -10.3 °C -16.3 °C 33822.8 hPa WSW 13.2 km/h 20.3 km/h 48 % 0 mm
22:44 -10.3 °C -16.3 °C 33822.8 hPa WSW 12.7 km/h 19.6 km/h 48 % 0 mm
22:45 -10.3 °C -16.3 °C 33822.8 hPa WSW 11.9 km/h 20.3 km/h 48 % 0 mm
22:46 -10.3 °C -16.3 °C 33822.8 hPa SW 11.1 km/h 20.3 km/h 48 % 0 mm
22:47 -10.3 °C -16.3 °C 33822.8 hPa WSW 11.6 km/h 20.3 km/h 48 % 0 mm
22:48 -10.3 °C -16.3 °C 33822.8 hPa WSW 10.6 km/h 20.3 km/h 48 % 0 mm
22:49 -10.3 °C -16.3 °C 33822.8 hPa WSW 10.9 km/h 20.9 km/h 48 % 0 mm
22:50 -10.3 °C -16.3 °C 33822.8 hPa WSW 11.9 km/h 20.9 km/h 48 % 0 mm
22:51 -10.3 °C -16.3 °C 33856.6 hPa SW 11.6 km/h 20.9 km/h 48 % 0 mm
22:52 -10.3 °C -16.3 °C 33856.6 hPa SW 13.7 km/h 31.9 km/h 48 % 0 mm
22:53 -10.3 °C -16.3 °C 33856.6 hPa WSW 15.3 km/h 31.9 km/h 48 % 0 mm
22:54 -10.3 °C -16.3 °C 33856.6 hPa SW 16.9 km/h 31.9 km/h 48 % 0 mm
22:55 -10.3 °C -16.3 °C 33856.6 hPa SW 17.4 km/h 31.9 km/h 48 % 0 mm
22:56 -10.3 °C -16.3 °C 33856.6 hPa SW 17.4 km/h 31.9 km/h 48 % 0 mm
22:57 -10.3 °C -16.3 °C 33856.6 hPa SW 17.4 km/h 31.9 km/h 48 % 0 mm
22:58 -10.3 °C -16.3 °C 33856.6 hPa SW 18.7 km/h 31.9 km/h 48 % 0 mm
22:59 -10.3 °C -16.3 °C 33856.6 hPa SW 17.9 km/h 31.9 km/h 48 % 0 mm
23:00 -10.3 °C -16.3 °C 33856.6 hPa SW 17.1 km/h 31.9 km/h 48 % 0 mm
23:01 -10.3 °C -16.3 °C 33856.6 hPa SW 17.9 km/h 31.9 km/h 48 % 0 mm
23:02 -10.3 °C -16.3 °C 33856.6 hPa SW 17.1 km/h 28.5 km/h 48 % 0 mm
23:03 -10.3 °C -16.3 °C 33856.6 hPa SW 17.4 km/h 38.3 km/h 48 % 0 mm
23:04 -10.3 °C -16.3 °C 33856.6 hPa SW 18.2 km/h 38.3 km/h 48 % 0 mm
23:05 -10.4 °C -16.4 °C 33856.6 hPa SW 18.2 km/h 38.3 km/h 48 % 0 mm
23:06 -10.4 °C -16.4 °C 33822.8 hPa SW 17.5 km/h 38.3 km/h 48 % 0 mm
23:07 -10.4 °C -16.2 °C 33822.8 hPa SW 17.1 km/h 38.3 km/h 49 % 0 mm
23:08 -10.4 °C -16.2 °C 33822.8 hPa WSW 17.4 km/h 38.3 km/h 49 % 0 mm
23:09 -10.4 °C -16.2 °C 33822.8 hPa SW 17.5 km/h 38.3 km/h 49 % 0 mm
23:10 -10.4 °C -16.2 °C 33822.8 hPa SW 17.4 km/h 38.3 km/h 49 % 0 mm
23:11 -10.4 °C -16.2 °C 33822.8 hPa SW 16.3 km/h 38.3 km/h 49 % 0 mm
23:12 -10.4 °C -16.2 °C 33822.8 hPa SW 15.6 km/h 38.3 km/h 49 % 0 mm
23:13 -10.4 °C -16.2 °C 33822.8 hPa SW 12.9 km/h 24.8 km/h 49 % 0 mm
23:14 -10.4 °C -16.2 °C 33822.8 hPa SW 11.1 km/h 24.8 km/h 49 % 0 mm
23:15 -10.4 °C -16.2 °C 33822.8 hPa SW 9.8 km/h 24.8 km/h 49 % 0 mm
23:16 -10.4 °C -16.2 °C 33822.8 hPa SW 10.1 km/h 24.8 km/h 49 % 0 mm
23:17 -10.4 °C -16.3 °C 33822.8 hPa SW 9.8 km/h 24.8 km/h 49 % 0 mm
23:18 -10.4 °C -16.3 °C 33822.8 hPa SSW 9.3 km/h 16.9 km/h 49 % 0 mm
23:19 -10.4 °C -16.3 °C 33822.8 hPa SSW 9 km/h 16.9 km/h 49 % 0 mm
23:20 -10.4 °C -16.3 °C 33822.8 hPa SSW 9.7 km/h 20.3 km/h 49 % 0 mm
23:21 -10.4 °C -16.3 °C 33822.8 hPa SSW 10.3 km/h 31.9 km/h 49 % 0 mm
23:22 -10.4 °C -16.3 °C 33822.8 hPa SW 11.9 km/h 31.9 km/h 49 % 0 mm
23:23 -10.4 °C -16.3 °C 33822.8 hPa SW 14.2 km/h 31.9 km/h 49 % 0 mm
23:24 -10.4 °C -16.3 °C 33822.8 hPa SSW 15 km/h 31.9 km/h 49 % 0 mm
23:25 -10.4 °C -16.3 °C 33822.8 hPa SW 15 km/h 31.9 km/h 49 % 0 mm
23:26 -10.4 °C -16.3 °C 33822.8 hPa SSW 14.8 km/h 31.9 km/h 49 % 0 mm
23:27 -10.4 °C -16.3 °C 33822.8 hPa SW 15.6 km/h 31.9 km/h 49 % 0 mm
23:28 -10.4 °C -16.3 °C 33822.8 hPa SW 16.6 km/h 31.9 km/h 49 % 0 mm
23:29 -10.4 °C -16.3 °C 33822.8 hPa SW 17.1 km/h 31.9 km/h 49 % 0 mm
23:30 -10.4 °C -16.3 °C 33822.8 hPa SW 17.1 km/h 31.9 km/h 49 % 0 mm
23:31 -10.5 °C -16.3 °C 33822.8 hPa SW 17.1 km/h 25.4 km/h 49 % 0 mm
23:32 -10.5 °C -16.3 °C 33822.8 hPa SW 16.1 km/h 25.4 km/h 49 % 0 mm
23:33 -10.5 °C -16.3 °C 33822.8 hPa SW 15.3 km/h 25.4 km/h 49 % 0 mm
23:34 -10.5 °C -16.3 °C 33822.8 hPa SW 14 km/h 25.4 km/h 49 % 0 mm
23:35 -10.5 °C -16.3 °C 33822.8 hPa SW 13.5 km/h 25.4 km/h 49 % 0 mm
23:36 -10.5 °C -16.2 °C 33890.5 hPa SW 12.7 km/h 25.4 km/h 50 % 0 mm
23:37 -10.5 °C -16.2 °C 33890.5 hPa SW 13.2 km/h 41.7 km/h 50 % 0 mm
23:38 -10.5 °C -16.2 °C 33890.5 hPa SW 13.5 km/h 41.7 km/h 50 % 0 mm
23:39 -10.5 °C -16.2 °C 33890.5 hPa WSW 14.2 km/h 41.7 km/h 50 % 0 mm
23:40 -10.5 °C -16.2 °C 33890.5 hPa SW 13.7 km/h 41.7 km/h 50 % 0 mm
23:41 -10.5 °C -16.2 °C 33890.5 hPa WSW 13.5 km/h 41.7 km/h 50 % 0 mm
23:42 -10.5 °C -16.2 °C 33890.5 hPa WSW 12.9 km/h 41.7 km/h 50 % 0 mm
23:43 -10.5 °C -16.2 °C 33890.5 hPa WSW 14.8 km/h 41.7 km/h 50 % 0 mm
23:44 -10.5 °C -16.2 °C 33890.5 hPa WSW 14.8 km/h 41.7 km/h 50 % 0 mm
23:45 -10.5 °C -16.2 °C 33890.5 hPa SW 16.1 km/h 41.7 km/h 50 % 0 mm
23:46 -10.6 °C -16.2 °C 33890.5 hPa SW 17.5 km/h 41.7 km/h 50 % 0 mm
23:47 -10.6 °C -16.2 °C 33890.5 hPa SW 17.1 km/h 23 km/h 50 % 0 mm
23:48 -10.6 °C -16.2 °C 33890.5 hPa SW 15.3 km/h 23 km/h 50 % 0 mm
23:49 -10.6 °C -16.2 °C 33890.5 hPa SW 14.8 km/h 23 km/h 50 % 0 mm
23:50 -10.6 °C -16.2 °C 33890.5 hPa SW 15 km/h 23 km/h 50 % 0 mm
23:51 -10.6 °C -16.2 °C 33890.5 hPa SW 16.3 km/h 23 km/h 50 % 0 mm
23:52 -10.6 °C -16.2 °C 33890.5 hPa SW 15.6 km/h 23 km/h 50 % 0 mm
23:53 -10.6 °C -16.2 °C 33890.5 hPa SSW 14.5 km/h 23 km/h 50 % 0 mm
23:54 -10.6 °C -16.2 °C 33890.5 hPa SSW 14.2 km/h 20.3 km/h 50 % 0 mm
23:55 -10.6 °C -16.2 °C 33890.5 hPa SSW 13.2 km/h 20.3 km/h 50 % 0 mm
23:56 -10.6 °C -16.2 °C 33890.5 hPa SW 12.2 km/h 20.3 km/h 50 % 0 mm
23:57 -10.6 °C -16.1 °C 33890.5 hPa SW 12.4 km/h 20.3 km/h 51 % 0 mm
23:58 -10.6 °C -16.1 °C 33890.5 hPa SW 14 km/h 20.3 km/h 51 % 0 mm
23:59 -10.6 °C -16.1 °C 33890.5 hPa SW 14.5 km/h 20.3 km/h 51 % 0 mm
Vremenska postaja Senovo
Podatki zbrani iz Weather Underground - 3.5 mb

Script developed by  Jim McMurry - jmcmurry@mwt.net Adapted for the template by  Wim van der Kuil - Leuven-Template.eu

Vremenski podatki so objavljeni na:

European Weather Network

WeatherCloud

Weather Underground

AWEKAS

HAMweather, WeatherForYou, PWS Weather

MapView

Geostik

Slovenia weather network

Oprema, ki se uporablja:

Vremenski program
Cumulus

Vremenski server
Asus

Cumulus

Asus